createdAt,value
2018-02-25T00:00:34.825Z,101702.38
2018-02-25T00:01:37.300Z,101698.11
2018-02-25T00:02:39.775Z,101699.36
2018-02-25T00:03:42.251Z,101698.13
2018-02-25T00:04:44.727Z,101702.39
2018-02-25T00:05:47.202Z,101693.47
2018-02-25T00:06:49.689Z,101702.77
2018-02-25T00:07:52.194Z,101703.13
2018-02-25T00:08:54.662Z,101698.46
2018-02-25T00:09:57.135Z,101705.16
2018-02-25T00:10:59.621Z,101704.58
2018-02-25T00:12:02.095Z,101709.38
2018-02-25T00:13:04.587Z,101707.46
2018-02-25T00:14:07.059Z,101711.59
2018-02-25T00:15:09.536Z,101711.30
2018-02-25T00:16:12.008Z,101710.89
2018-02-25T00:17:14.502Z,101714.05
2018-02-25T00:18:16.986Z,101712.81
2018-02-25T00:19:19.469Z,101712.95
2018-02-25T00:20:21.943Z,101713.21
2018-02-25T00:21:24.419Z,101715.28
2018-02-25T00:22:29.757Z,101708.27
2018-02-25T00:23:32.230Z,101717.20
2018-02-25T00:24:34.738Z,101713.80
2018-02-25T00:25:37.289Z,101714.22
2018-02-25T00:26:39.759Z,101718.36
2018-02-25T00:27:42.258Z,101723.28
2018-02-25T00:28:44.752Z,101721.52
2018-02-25T00:29:47.252Z,101719.62
2018-02-25T00:30:49.734Z,101720.88
2018-02-25T00:31:52.207Z,101720.33
2018-02-25T00:32:54.701Z,101719.23
2018-02-25T00:33:57.186Z,101718.84
2018-02-25T00:34:59.680Z,101718.86
2018-02-25T00:36:02.171Z,101718.88
2018-02-25T00:37:04.661Z,101725.34
2018-02-25T00:38:07.150Z,101728.50
2018-02-25T00:39:09.729Z,101733.02
2018-02-25T00:40:12.235Z,101732.06
2018-02-25T00:41:14.720Z,101738.37
2018-02-25T00:42:17.215Z,101743.73
2018-02-25T00:43:19.696Z,101741.42
2018-02-25T00:44:22.184Z,101743.77
2018-02-25T00:45:24.693Z,101743.20
2018-02-25T00:46:27.181Z,101739.08
2018-02-25T00:47:29.670Z,101741.16
2018-02-25T00:48:32.690Z,101743.07
2018-02-25T00:49:35.165Z,101748.95
2018-02-25T00:50:37.684Z,101744.54
2018-02-25T00:51:40.175Z,101746.84
2018-02-25T00:52:42.664Z,101749.88
2018-02-25T00:53:45.163Z,101746.03
2018-02-25T00:54:47.643Z,101745.73
2018-02-25T00:55:50.161Z,101748.87
2018-02-25T00:56:52.650Z,101746.39
2018-02-25T00:57:55.146Z,101745.98
2018-02-25T00:58:57.638Z,101748.59
2018-02-25T01:00:00.113Z,101745.84
2018-02-25T01:01:02.621Z,101745.44
2018-02-25T01:02:05.097Z,101749.14
2018-02-25T01:03:07.665Z,101751.06
2018-02-25T01:04:10.155Z,101752.57
2018-02-25T01:05:12.631Z,101761.91
2018-02-25T01:06:15.141Z,101751.63
2018-02-25T01:07:17.620Z,101755.19
2018-02-25T01:08:20.106Z,101758.48
2018-02-25T01:09:22.598Z,101753.69
2018-02-25T01:10:25.085Z,101758.49
2018-02-25T01:11:27.583Z,101754.94
2018-02-25T01:12:30.060Z,101754.80
2018-02-25T01:13:32.538Z,101756.31
2018-02-25T01:14:35.029Z,101753.45
2018-02-25T01:15:37.515Z,101753.70
2018-02-25T01:16:40.038Z,101758.65
2018-02-25T01:17:42.524Z,101755.23
2018-02-25T01:18:44.996Z,101759.21
2018-02-25T01:19:47.473Z,101761.41
2018-02-25T01:20:49.965Z,101762.92
2018-02-25T01:21:52.459Z,101757.44
2018-02-25T01:22:54.944Z,101754.69
2018-02-25T01:23:57.415Z,101757.70
2018-02-25T01:24:59.890Z,101752.19
2018-02-25T01:26:02.387Z,101758.59
2018-02-25T01:27:04.889Z,101752.54
2018-02-25T01:28:07.363Z,101748.67
2018-02-25T01:29:09.844Z,101757.02
2018-02-25T01:30:12.310Z,101756.56
2018-02-25T01:31:14.814Z,101756.02
2018-02-25T01:32:17.320Z,101754.52
2018-02-25T01:33:19.792Z,101750.41
2018-02-25T01:34:22.270Z,101756.70
2018-02-25T01:35:24.739Z,101753.95
2018-02-25T01:36:27.215Z,101756.14
2018-02-25T01:37:29.722Z,101755.18
2018-02-25T01:38:32.191Z,101759.99
2018-02-25T01:39:34.672Z,101757.80
2018-02-25T01:40:37.151Z,101760.01
2018-02-25T01:41:39.644Z,101755.89
2018-02-25T01:42:42.140Z,101755.48
2018-02-25T01:43:44.614Z,101753.69
2018-02-25T01:44:47.106Z,101746.27
2018-02-25T01:45:49.583Z,101739.42
2018-02-25T01:46:52.064Z,101745.75
2018-02-25T01:47:54.569Z,101743.44
2018-02-25T01:48:57.062Z,101740.84
2018-02-25T01:49:59.557Z,101752.64
2018-02-25T01:51:04.658Z,101751.94
2018-02-25T01:52:07.157Z,101748.39
2018-02-25T01:53:09.635Z,101748.27
2018-02-25T01:54:12.209Z,101753.89
2018-02-25T01:55:14.697Z,101748.02
2018-02-25T01:56:17.181Z,101752.55
2018-02-25T01:57:19.732Z,101755.03
2018-02-25T01:58:22.172Z,101752.98
2018-02-25T01:59:24.655Z,101755.05
2018-02-25T02:00:27.131Z,101752.14
2018-02-25T02:01:29.612Z,101753.94
2018-02-25T02:02:32.084Z,101755.87
2018-02-25T02:03:34.570Z,101760.13
2018-02-25T02:04:37.043Z,101760.97
2018-02-25T02:05:39.541Z,101755.91
2018-02-25T02:06:42.030Z,101757.97
2018-02-25T02:07:44.516Z,101753.29
2018-02-25T02:08:46.993Z,101753.59
2018-02-25T02:09:49.487Z,101751.81
2018-02-25T02:10:51.976Z,101747.97
2018-02-25T02:11:54.462Z,101749.30
2018-02-25T02:12:56.951Z,101746.66
2018-02-25T02:13:59.446Z,101748.42
2018-02-25T02:15:01.923Z,101742.21
2018-02-25T02:16:04.400Z,101754.52
2018-02-25T02:17:06.887Z,101743.38
2018-02-25T02:18:09.363Z,101745.47
2018-02-25T02:19:11.863Z,101747.77
2018-02-25T02:20:14.357Z,101750.91
2018-02-25T02:21:16.835Z,101748.41
2018-02-25T02:22:19.303Z,101748.81
2018-02-25T02:23:21.778Z,101751.13
2018-02-25T02:24:24.256Z,101751.42
2018-02-25T02:25:26.750Z,101755.81
2018-02-25T02:26:29.227Z,101757.84
2018-02-25T02:27:31.713Z,101757.03
2018-02-25T02:28:34.205Z,101753.05
2018-02-25T02:29:36.694Z,101752.64
2018-02-25T02:30:39.180Z,101747.71
2018-02-25T02:31:41.664Z,101751.56
2018-02-25T02:32:44.157Z,101753.36
2018-02-25T02:33:46.646Z,101760.66
2018-02-25T02:34:49.132Z,101757.92
2018-02-25T02:35:51.625Z,101756.28
2018-02-25T02:36:54.116Z,101750.67
2018-02-25T02:37:56.601Z,101755.48
2018-02-25T02:38:59.093Z,101757.25
2018-02-25T02:40:01.583Z,101760.25
2018-02-25T02:41:04.047Z,101758.61
2018-02-25T02:42:06.534Z,101760.83
2018-02-25T02:43:09.013Z,101755.77
2018-02-25T02:44:11.512Z,101756.19
2018-02-25T02:45:14.010Z,101762.10
2018-02-25T02:46:16.505Z,101759.64
2018-02-25T02:47:19.009Z,101768.67
2018-02-25T02:48:21.507Z,101765.40
2018-02-25T02:49:24.000Z,101765.97
2018-02-25T02:50:26.486Z,101769.55
2018-02-25T02:51:28.960Z,101769.16
2018-02-25T02:52:31.439Z,101773.55
2018-02-25T02:53:33.919Z,101777.80
2018-02-25T02:54:36.396Z,101779.73
2018-02-25T02:55:38.872Z,101778.61
2018-02-25T02:56:41.363Z,101769.00
2018-02-25T02:57:43.842Z,101773.34
2018-02-25T02:58:46.325Z,101778.81
2018-02-25T02:59:48.817Z,101777.94
2018-02-25T03:00:51.309Z,101778.91
2018-02-25T03:01:53.824Z,101772.98
2018-02-25T03:02:56.281Z,101778.57
2018-02-25T03:03:58.753Z,101779.14
2018-02-25T03:05:01.255Z,101780.34
2018-02-25T03:06:03.751Z,101781.97
2018-02-25T03:07:06.227Z,101779.90
2018-02-25T03:08:08.700Z,101776.05
2018-02-25T03:09:11.457Z,101778.63
2018-02-25T03:10:13.935Z,101780.84
2018-02-25T03:11:16.429Z,101783.59
2018-02-25T03:12:18.917Z,101786.06
2018-02-25T03:13:21.418Z,101787.44
2018-02-25T03:14:23.914Z,101786.20
2018-02-25T03:15:26.409Z,101787.05
2018-02-25T03:16:28.892Z,101780.73
2018-02-25T03:17:31.500Z,101775.27
2018-02-25T03:18:33.993Z,101772.13
2018-02-25T03:19:36.485Z,101779.80
2018-02-25T03:20:38.963Z,101773.78
2018-02-25T03:21:41.458Z,101779.84
2018-02-25T03:22:43.939Z,101778.48
2018-02-25T03:23:46.433Z,101784.67
2018-02-25T03:24:48.907Z,101782.35
2018-02-25T03:25:51.402Z,101778.66
2018-02-25T03:26:53.905Z,101782.63
2018-02-25T03:27:56.397Z,101778.80
2018-02-25T03:28:58.893Z,101774.25
2018-02-25T03:30:01.382Z,101783.73
2018-02-25T03:31:03.856Z,101784.02
2018-02-25T03:32:06.323Z,101785.13
2018-02-25T03:33:08.817Z,101781.02
2018-02-25T03:34:11.312Z,101780.61
2018-02-25T03:35:13.822Z,101784.05
2018-02-25T03:36:16.303Z,101780.22
2018-02-25T03:37:18.797Z,101780.47
2018-02-25T03:38:21.271Z,101780.75
2018-02-25T03:39:23.739Z,101777.06
2018-02-25T03:40:26.233Z,101781.04
2018-02-25T03:41:28.715Z,101788.98
2018-02-25T03:42:31.192Z,101789.37
2018-02-25T03:43:33.667Z,101786.17
2018-02-25T03:44:36.157Z,101786.34
2018-02-25T03:45:38.641Z,101789.32
2018-02-25T03:46:41.138Z,101783.66
2018-02-25T03:47:43.629Z,101782.69
2018-02-25T03:48:46.106Z,101785.24
2018-02-25T03:49:48.605Z,101783.70
2018-02-25T03:50:51.156Z,101782.61
2018-02-25T03:51:53.632Z,101790.54
2018-02-25T03:52:56.123Z,101782.45
2018-02-25T03:53:58.647Z,101794.11
2018-02-25T03:55:01.131Z,101793.28
2018-02-25T03:56:03.612Z,101792.44
2018-02-25T03:57:06.087Z,101796.01
2018-02-25T03:58:08.568Z,101790.25
2018-02-25T03:59:11.060Z,101799.59
2018-02-25T04:00:13.545Z,101800.98
2018-02-25T04:01:16.039Z,101795.91
2018-02-25T04:02:18.515Z,101804.02
2018-02-25T04:03:21.005Z,101804.86
2018-02-25T04:04:23.499Z,101806.08
2018-02-25T04:05:25.996Z,101804.17
2018-02-25T04:06:28.485Z,101804.05
2018-02-25T04:07:30.962Z,101811.89
2018-02-25T04:08:33.461Z,101808.75
2018-02-25T04:09:35.955Z,101812.07
2018-02-25T04:10:38.426Z,101808.91
2018-02-25T04:11:40.911Z,101810.70
2018-02-25T04:12:43.404Z,101807.85
2018-02-25T04:13:45.889Z,101807.73
2018-02-25T04:14:48.370Z,101809.94
2018-02-25T04:15:50.869Z,101812.25
2018-02-25T04:16:53.358Z,101814.47
2018-02-25T04:17:55.846Z,101821.43
2018-02-25T04:18:58.327Z,101815.14
2018-02-25T04:20:00.813Z,101814.88
2018-02-25T04:21:03.283Z,101818.31
2018-02-25T04:22:05.764Z,101815.58
2018-02-25T04:23:08.239Z,101818.75
2018-02-25T04:24:10.734Z,101816.27
2018-02-25T04:25:13.227Z,101821.05
2018-02-25T04:26:15.713Z,101822.55
2018-02-25T04:27:18.186Z,101829.57
2018-02-25T04:28:20.659Z,101825.69
2018-02-25T04:29:23.136Z,101833.20
2018-02-25T04:30:25.625Z,101829.34
2018-02-25T04:31:28.103Z,101833.83
2018-02-25T04:32:30.581Z,101828.45
2018-02-25T04:33:33.060Z,101831.20
2018-02-25T04:34:35.545Z,101834.48
2018-02-25T04:35:38.039Z,101836.52
2018-02-25T04:36:40.529Z,101838.16
2018-02-25T04:37:43.023Z,101843.63
2018-02-25T04:38:45.494Z,101842.25
2018-02-25T04:39:48.010Z,101834.02
2018-02-25T04:40:50.483Z,101838.13
2018-02-25T04:41:52.964Z,101840.34
2018-02-25T04:42:55.446Z,101841.05
2018-02-25T04:43:57.942Z,101842.70
2018-02-25T04:45:00.438Z,101841.20
2018-02-25T04:46:02.921Z,101849.60
2018-02-25T04:47:05.402Z,101850.16
2018-02-25T04:48:07.894Z,101852.19
2018-02-25T04:49:10.383Z,101858.09
2018-02-25T04:50:12.851Z,101846.72
2018-02-25T04:51:15.327Z,101855.23
2018-02-25T04:52:17.826Z,101854.70
2018-02-25T04:53:20.292Z,101857.88
2018-02-25T04:54:22.763Z,101855.55
2018-02-25T04:55:25.258Z,101855.58
2018-02-25T04:56:27.739Z,101855.15
2018-02-25T04:57:30.220Z,101862.98
2018-02-25T04:58:32.714Z,101856.69
2018-02-25T04:59:35.214Z,101857.94
2018-02-25T05:00:37.715Z,101861.52
2018-02-25T05:01:40.202Z,101866.20
2018-02-25T05:02:42.723Z,101864.12
2018-02-25T05:03:45.203Z,101867.55
2018-02-25T05:04:47.679Z,101862.88
2018-02-25T05:05:50.182Z,101863.84
2018-02-25T05:06:52.663Z,101863.45
2018-02-25T05:07:55.153Z,101867.69
2018-02-25T05:08:57.640Z,101861.59
2018-02-25T05:10:00.129Z,101862.41
2018-02-25T05:11:02.633Z,101868.25
2018-02-25T05:12:05.125Z,101869.19
2018-02-25T05:13:07.615Z,101866.43
2018-02-25T05:14:10.105Z,101871.22
2018-02-25T05:15:12.602Z,101875.61
2018-02-25T05:16:15.085Z,101875.17
2018-02-25T05:17:17.565Z,101879.56
2018-02-25T05:18:20.047Z,101880.52
2018-02-25T05:19:22.536Z,101880.38
2018-02-25T05:20:25.017Z,101886.02
2018-02-25T05:21:27.517Z,101887.53
2018-02-25T05:22:29.996Z,101892.20
2018-02-25T05:23:32.481Z,101888.49
2018-02-25T05:24:34.967Z,101889.89
2018-02-25T05:25:37.451Z,101895.08
2018-02-25T05:26:39.938Z,101887.55
2018-02-25T05:27:42.437Z,101896.08
2018-02-25T05:28:44.935Z,101893.34
2018-02-25T05:29:47.417Z,101893.51
2018-02-25T05:30:49.892Z,101893.94
2018-02-25T05:31:52.366Z,101892.69
2018-02-25T05:32:54.857Z,101894.75
2018-02-25T05:33:57.351Z,101896.42
2018-02-25T05:34:59.854Z,101892.59
2018-02-25T05:36:02.336Z,101890.42
2018-02-25T05:37:04.808Z,101897.81
2018-02-25T05:38:07.300Z,101894.13
2018-02-25T05:39:09.779Z,101892.35
2018-02-25T05:40:12.283Z,101895.25
2018-02-25T05:41:14.758Z,101889.23
2018-02-25T05:42:17.226Z,101891.98
2018-02-25T05:43:19.717Z,101891.30
2018-02-25T05:44:22.207Z,101891.80
2018-02-25T05:45:24.688Z,101888.80
2018-02-25T05:46:27.187Z,101880.84
2018-02-25T05:47:29.678Z,101890.18
2018-02-25T05:48:32.170Z,101879.61
2018-02-25T05:49:34.644Z,101889.22
2018-02-25T05:50:37.150Z,101883.47
2018-02-25T05:51:39.628Z,101889.73
2018-02-25T05:52:42.112Z,101884.78
2018-02-25T05:53:44.601Z,101899.69
2018-02-25T05:54:47.117Z,101896.12
2018-02-25T05:55:49.581Z,101894.17
2018-02-25T05:56:52.060Z,101888.11
2018-02-25T05:57:54.553Z,101895.08
2018-02-25T05:58:57.032Z,101889.60
2018-02-25T05:59:59.525Z,101889.05
2018-02-25T06:01:02.003Z,101882.45
2018-02-25T06:02:04.491Z,101883.54
2018-02-25T06:03:06.983Z,101883.41
2018-02-25T06:04:09.467Z,101884.37
2018-02-25T06:05:11.951Z,101881.77
2018-02-25T06:06:14.431Z,101885.07
2018-02-25T06:07:16.921Z,101884.93
2018-02-25T06:08:19.410Z,101884.54
2018-02-25T06:09:21.901Z,101881.37
2018-02-25T06:10:24.381Z,101884.13
2018-02-25T06:11:26.880Z,101882.37
2018-02-25T06:12:29.364Z,101878.14
2018-02-25T06:13:31.850Z,101879.50
2018-02-25T06:14:34.319Z,101879.78
2018-02-25T06:15:36.805Z,101880.77
2018-02-25T06:16:39.283Z,101882.30
2018-02-25T06:17:41.769Z,101880.38
2018-02-25T06:18:44.269Z,101882.19
2018-02-25T06:19:46.761Z,101884.94
2018-02-25T06:20:49.230Z,101881.91
2018-02-25T06:21:51.703Z,101884.13
2018-02-25T06:22:54.167Z,101883.31
2018-02-25T06:23:56.661Z,101880.58
2018-02-25T06:24:59.144Z,101886.35
2018-02-25T06:26:01.625Z,101879.92
2018-02-25T06:27:04.104Z,101882.75
2018-02-25T06:28:06.599Z,101880.84
2018-02-25T06:29:09.075Z,101882.62
2018-02-25T06:30:11.552Z,101882.34
2018-02-25T06:31:14.038Z,101880.19
2018-02-25T06:32:16.521Z,101887.02
2018-02-25T06:33:19.040Z,101883.27
2018-02-25T06:34:21.527Z,101885.32
2018-02-25T06:35:23.999Z,101886.23
2018-02-25T06:36:26.490Z,101889.39
2018-02-25T06:37:28.977Z,101886.88
2018-02-25T06:38:31.457Z,101893.72
2018-02-25T06:39:33.946Z,101888.91
2018-02-25T06:40:36.439Z,101887.53
2018-02-25T06:41:38.920Z,101890.28
2018-02-25T06:42:41.430Z,101889.05
2018-02-25T06:43:43.925Z,101894.69
2018-02-25T06:44:46.409Z,101890.84
2018-02-25T06:45:48.892Z,101894.97
2018-02-25T06:46:51.377Z,101900.16
2018-02-25T06:47:53.875Z,101908.56
2018-02-25T06:48:56.355Z,101903.08
2018-02-25T06:49:58.811Z,101901.03
2018-02-25T06:51:01.294Z,101906.40
2018-02-25T06:52:03.817Z,101906.41
2018-02-25T06:53:06.310Z,101902.03
2018-02-25T06:54:08.811Z,101906.95
2018-02-25T06:55:11.311Z,101906.27
2018-02-25T06:56:13.802Z,101904.36
2018-02-25T06:57:16.297Z,101906.16
2018-02-25T06:58:18.776Z,101909.33
2018-02-25T06:59:21.269Z,101906.59
2018-02-25T07:00:23.748Z,101908.40
2018-02-25T07:01:26.214Z,101911.13
2018-02-25T07:02:28.709Z,101913.74
2018-02-25T07:03:31.190Z,101905.11
2018-02-25T07:04:33.680Z,101908.83
2018-02-25T07:05:36.165Z,101906.09
2018-02-25T07:06:38.650Z,101905.28
2018-02-25T07:07:41.136Z,101910.09
2018-02-25T07:08:43.611Z,101912.30
2018-02-25T07:09:46.102Z,101918.33
2018-02-25T07:10:48.589Z,101916.12
2018-02-25T07:11:51.096Z,101920.64
2018-02-25T07:12:53.594Z,101919.23
2018-02-25T07:13:56.081Z,101926.35
2018-02-25T07:14:58.572Z,101928.52
2018-02-25T07:16:01.053Z,101930.54
2018-02-25T07:17:03.524Z,101923.92
2018-02-25T07:18:05.996Z,101925.03
2018-02-25T07:19:08.479Z,101921.89
2018-02-25T07:20:10.978Z,101927.40
2018-02-25T07:21:13.528Z,101930.44
2018-02-25T07:22:15.989Z,101930.42
2018-02-25T07:23:18.487Z,101919.19
2018-02-25T07:24:20.959Z,101928.81
2018-02-25T07:25:23.436Z,101931.86
2018-02-25T07:26:25.951Z,101935.58
2018-02-25T07:27:28.437Z,101930.76
2018-02-25T07:28:30.931Z,101933.81
2018-02-25T07:29:33.418Z,101931.22
2018-02-25T07:30:35.905Z,101935.62
2018-02-25T07:31:38.375Z,101932.55
2018-02-25T07:32:40.886Z,101931.20
2018-02-25T07:33:43.381Z,101932.98
2018-02-25T07:34:45.854Z,101937.67
2018-02-25T07:35:48.326Z,101934.40
2018-02-25T07:36:51.036Z,101938.49
2018-02-25T07:37:53.544Z,101935.08
2018-02-25T07:38:56.011Z,101935.21
2018-02-25T07:39:58.501Z,101931.92
2018-02-25T07:41:00.990Z,101944.27
2018-02-25T07:42:03.478Z,101942.34
2018-02-25T07:43:05.964Z,101939.33
2018-02-25T07:44:08.461Z,101939.89
2018-02-25T07:45:10.953Z,101937.54
2018-02-25T07:46:13.458Z,101936.73
2018-02-25T07:47:15.950Z,101942.77
2018-02-25T07:48:18.438Z,101942.63
2018-02-25T07:49:20.907Z,101946.19
2018-02-25T07:50:23.379Z,101943.05
2018-02-25T07:51:25.875Z,101945.52
2018-02-25T07:52:28.370Z,101944.67
2018-02-25T07:53:30.855Z,101948.78
2018-02-25T07:54:33.345Z,101949.77
2018-02-25T07:55:35.833Z,101947.98
2018-02-25T07:56:38.334Z,101948.80
2018-02-25T07:57:40.825Z,101947.14
2018-02-25T07:58:43.305Z,101944.53
2018-02-25T07:59:45.781Z,101946.59
2018-02-25T08:00:48.267Z,101952.77
2018-02-25T08:01:50.743Z,101947.98
2018-02-25T08:02:53.228Z,101952.64
2018-02-25T08:03:55.714Z,101950.86
2018-02-25T08:04:58.217Z,101951.83
2018-02-25T08:06:00.691Z,101952.64
2018-02-25T08:07:03.165Z,101951.41
2018-02-25T08:08:05.777Z,101955.67
2018-02-25T08:09:08.261Z,101954.55
2018-02-25T08:10:10.799Z,101958.94
2018-02-25T08:11:13.357Z,101954.42
2018-02-25T08:12:15.900Z,101952.64
2018-02-25T08:13:18.389Z,101950.28
2018-02-25T08:14:20.937Z,101952.63
2018-02-25T08:15:23.502Z,101954.55
2018-02-25T08:16:26.051Z,101951.67
2018-02-25T08:17:28.528Z,101951.40
2018-02-25T08:18:31.079Z,101948.52
2018-02-25T08:19:33.642Z,101950.44
2018-02-25T08:20:36.298Z,101954.83
2018-02-25T08:21:38.794Z,101954.15
2018-02-25T08:22:41.404Z,101950.04
2018-02-25T08:23:43.900Z,101952.64
2018-02-25T08:24:46.399Z,101950.70
2018-02-25T08:25:48.892Z,101952.08
2018-02-25T08:26:51.516Z,101947.81
2018-02-25T08:27:54.013Z,101950.55
2018-02-25T08:28:56.498Z,101948.49
2018-02-25T08:29:58.972Z,101951.91
2018-02-25T08:31:01.461Z,101956.41
2018-02-25T08:32:03.958Z,101958.97
2018-02-25T08:33:06.463Z,101960.42
2018-02-25T08:34:08.964Z,101956.94
2018-02-25T08:35:11.524Z,101956.94
2018-02-25T08:36:14.084Z,101956.47
2018-02-25T08:37:16.644Z,101958.36
2018-02-25T08:38:19.208Z,101960.93
2018-02-25T08:39:21.754Z,101956.49
2018-02-25T08:40:24.249Z,101951.35
2018-02-25T08:41:26.784Z,101944.39
2018-02-25T08:42:29.266Z,101952.55
2018-02-25T08:43:31.801Z,101952.28
2018-02-25T08:44:34.297Z,101951.30
2018-02-25T08:45:36.819Z,101946.55
2018-02-25T08:46:39.302Z,101950.83
2018-02-25T08:47:41.805Z,101958.23
2018-02-25T08:48:44.398Z,101956.30
2018-02-25T08:49:46.963Z,101954.86
2018-02-25T08:50:49.518Z,101953.95
2018-02-25T08:51:52.080Z,101948.94
2018-02-25T08:52:54.641Z,101953.76
2018-02-25T08:53:57.130Z,101952.41
2018-02-25T08:54:59.658Z,101956.27
2018-02-25T08:56:02.220Z,101955.00
2018-02-25T08:57:04.775Z,101955.69
2018-02-25T08:58:07.335Z,101962.61
2018-02-25T08:59:09.894Z,101958.44
2018-02-25T09:00:12.459Z,101954.66
2018-02-25T09:01:15.015Z,101963.48
2018-02-25T09:02:17.506Z,101965.36
2018-02-25T09:03:20.035Z,101960.50
2018-02-25T09:04:22.516Z,101958.91
2018-02-25T09:05:25.055Z,101960.64
2018-02-25T09:06:27.782Z,101963.44
2018-02-25T09:07:30.375Z,101964.27
2018-02-25T09:08:32.861Z,101968.54
2018-02-25T09:09:35.398Z,101963.73
2018-02-25T09:10:37.882Z,101962.09
2018-02-25T09:11:40.355Z,101964.85
2018-02-25T09:12:42.867Z,101970.77
2018-02-25T09:13:45.436Z,101964.41
2018-02-25T09:14:47.984Z,101973.05
2018-02-25T09:15:50.651Z,101967.44
2018-02-25T09:16:53.215Z,101968.63
2018-02-25T09:17:55.683Z,101967.33
2018-02-25T09:18:58.232Z,101972.22
2018-02-25T09:20:00.791Z,101965.22
2018-02-25T09:21:03.342Z,101957.55
2018-02-25T09:22:05.913Z,101965.88
2018-02-25T09:23:08.395Z,101969.45
2018-02-25T09:24:10.932Z,101963.53
2018-02-25T09:25:13.400Z,101966.89
2018-02-25T09:26:15.943Z,101969.38
2018-02-25T09:27:18.507Z,101965.55
2018-02-25T09:28:21.069Z,101967.38
2018-02-25T09:29:23.560Z,101963.95
2018-02-25T09:30:26.032Z,101970.73
2018-02-25T09:31:28.540Z,101973.19
2018-02-25T09:32:31.089Z,101968.05
2018-02-25T09:33:33.591Z,101969.30
2018-02-25T09:34:36.121Z,101961.08
2018-02-25T09:35:38.679Z,101967.09
2018-02-25T09:36:41.160Z,101960.79
2018-02-25T09:37:43.695Z,101965.69
2018-02-25T09:38:46.248Z,101960.55
2018-02-25T09:39:48.821Z,101957.64
2018-02-25T09:40:51.368Z,101961.37
2018-02-25T09:41:53.915Z,101961.78
2018-02-25T09:42:56.378Z,101955.86
2018-02-25T09:43:58.956Z,101959.36
2018-02-25T09:45:01.516Z,101953.07
2018-02-25T09:46:04.080Z,101960.64
2018-02-25T09:47:06.552Z,101957.33
2018-02-25T09:48:09.091Z,101948.89
2018-02-25T09:49:11.653Z,101946.77
2018-02-25T09:50:14.211Z,101953.48
2018-02-25T09:51:16.774Z,101948.09
2018-02-25T09:52:19.314Z,101951.40
2018-02-25T09:53:21.857Z,101947.12
2018-02-25T09:54:24.363Z,101940.84
2018-02-25T09:55:26.911Z,101936.09
2018-02-25T09:56:29.476Z,101945.03
2018-02-25T09:57:32.033Z,101939.61
2018-02-25T09:58:34.591Z,101952.89
2018-02-25T09:59:37.150Z,101945.18
2018-02-25T10:00:39.621Z,101942.52
2018-02-25T10:01:42.167Z,101940.45
2018-02-25T10:02:44.734Z,101946.20
2018-02-25T10:03:47.202Z,101937.63
2018-02-25T10:04:49.671Z,101941.28
2018-02-25T10:05:52.206Z,101937.77
2018-02-25T10:06:54.766Z,101937.35
2018-02-25T10:07:57.304Z,101936.81
2018-02-25T10:08:59.785Z,101939.33
2018-02-25T10:10:02.345Z,101936.18
2018-02-25T10:11:04.907Z,101935.98
2018-02-25T10:12:07.458Z,101936.89
2018-02-25T10:13:10.023Z,101930.56
2018-02-25T10:14:12.508Z,101935.26
2018-02-25T10:15:15.041Z,101937.73
2018-02-25T10:16:17.601Z,101933.08
2018-02-25T10:17:20.162Z,101937.81
2018-02-25T10:18:22.636Z,101941.84
2018-02-25T10:19:25.178Z,101939.80
2018-02-25T10:20:27.742Z,101930.23
2018-02-25T10:21:30.208Z,101932.45
2018-02-25T10:22:32.695Z,101932.39
2018-02-25T10:23:35.160Z,101930.11
2018-02-25T10:24:37.697Z,101930.98
2018-02-25T10:25:40.231Z,101926.34
2018-02-25T10:26:42.796Z,101926.09
2018-02-25T10:27:45.281Z,101918.48
2018-02-25T10:28:47.808Z,101917.75
2018-02-25T10:29:50.373Z,101916.02
2018-02-25T10:30:52.933Z,101908.41
2018-02-25T10:31:55.407Z,101911.11
2018-02-25T10:32:57.947Z,101912.25
2018-02-25T10:34:00.510Z,101912.91
2018-02-25T10:35:03.078Z,101913.11
2018-02-25T10:36:05.544Z,101906.97
2018-02-25T10:37:08.083Z,101908.24
2018-02-25T10:38:10.645Z,101912.65
2018-02-25T10:39:13.116Z,101910.55
2018-02-25T10:40:15.663Z,101908.00
2018-02-25T10:41:18.140Z,101902.95
2018-02-25T10:42:20.682Z,101904.73
2018-02-25T10:43:23.156Z,101905.97
2018-02-25T10:44:25.646Z,101900.70
2018-02-25T10:45:28.133Z,101895.58
2018-02-25T10:46:30.613Z,101897.16
2018-02-25T10:47:33.177Z,101901.77
2018-02-25T10:48:35.647Z,101901.66
2018-02-25T10:49:38.192Z,101905.66
2018-02-25T10:50:40.752Z,101906.98
2018-02-25T10:51:43.274Z,101902.23
2018-02-25T10:52:45.769Z,101902.33
2018-02-25T10:53:48.335Z,101901.10
2018-02-25T10:54:50.817Z,101900.45
2018-02-25T10:55:53.394Z,101899.59
2018-02-25T10:56:56.010Z,101899.27
2018-02-25T10:57:58.560Z,101900.29
2018-02-25T10:59:01.031Z,101903.88
2018-02-25T11:00:03.534Z,101899.36
2018-02-25T11:01:07.886Z,101891.29
2018-02-25T11:02:10.371Z,101886.41
2018-02-25T11:03:12.905Z,101889.04
2018-02-25T11:04:15.469Z,101884.91
2018-02-25T11:05:18.028Z,101887.13
2018-02-25T11:06:20.588Z,101884.37
2018-02-25T11:07:23.069Z,101886.73
2018-02-25T11:08:25.550Z,101887.30
2018-02-25T11:09:28.062Z,101887.93
2018-02-25T11:10:30.622Z,101882.66
2018-02-25T11:11:33.091Z,101890.06
2018-02-25T11:12:35.644Z,101882.38
2018-02-25T11:13:38.125Z,101884.97
2018-02-25T11:14:40.656Z,101881.08
2018-02-25T11:15:43.215Z,101880.42
2018-02-25T11:16:45.776Z,101875.83
2018-02-25T11:17:48.243Z,101878.78
2018-02-25T11:18:50.794Z,101871.56
2018-02-25T11:19:53.302Z,101871.82
2018-02-25T11:20:55.821Z,101874.71
2018-02-25T11:21:59.241Z,101871.08
2018-02-25T11:23:01.722Z,101872.64
2018-02-25T11:24:04.315Z,101863.45
2018-02-25T11:25:06.811Z,101859.31
2018-02-25T11:26:09.333Z,101866.52
2018-02-25T11:27:12.095Z,101868.48
2018-02-25T11:28:14.625Z,101856.90
2018-02-25T11:29:17.105Z,101858.33
2018-02-25T11:30:19.601Z,101860.32
2018-02-25T11:31:22.161Z,101854.14
2018-02-25T11:32:24.690Z,101852.61
2018-02-25T11:33:27.253Z,101852.09
2018-02-25T11:34:29.818Z,101849.09
2018-02-25T11:35:32.371Z,101846.19
2018-02-25T11:36:34.965Z,101848.12
2018-02-25T11:37:37.490Z,101851.85
2018-02-25T11:38:39.970Z,101840.14
2018-02-25T11:39:42.508Z,101844.23
2018-02-25T11:40:45.070Z,101833.09
2018-02-25T11:41:47.630Z,101836.92
2018-02-25T11:42:50.100Z,101830.48
2018-02-25T11:43:52.647Z,101834.99
2018-02-25T11:44:55.213Z,101833.26
2018-02-25T11:45:57.757Z,101835.12
2018-02-25T11:47:00.249Z,101828.44
2018-02-25T11:48:02.716Z,101829.30
2018-02-25T11:49:05.246Z,101827.16
2018-02-25T11:50:07.801Z,101819.30
2018-02-25T11:51:10.290Z,101825.55
2018-02-25T11:52:12.927Z,101823.92
2018-02-25T11:53:15.483Z,101817.04